All Spectrum Aviation - Van Nuys Airport - KVNY

HOME

Condor Squadron KVNY Webcam

Visit our Electronics Store

Condor Squadron Webcam - Van Nuys Airport - KVNY
Picture taken: Thu, 20 Jun 2019 17:10:21 -0700
YouTube Channel!    Latest Timelapse Movie    Full Size Image    Regular Size Image    

2019/06/20 23:51 KVNY 202351Z 16011G15KT 10SM CLR 23/13 A2990 RMK AO2 SLP117 T02330133 10239 20189 58016

HOME

Condor Squadron KVNY Webcam

Visit our Electronics Store